Geeveston (forestry), Australia

10:40 PM AEDT on December 09, 2016 (GMT +1100)
Geeveston petenjohn | | Change Station

Elev 167 ft 43.16 °S, 146.92 °E | Updated 2 seconds ago

Partly Cloudy
Partly Cloudy
49.6 °F
Feels Like 50 °F
N
2.0
Wind Variable Wind from NNW
Gusts 6.7 mph

Today
High -- | Low -- °F
--% Chance of Precip.
Yesterday
High -- | Low -- °F
Precip. -- in
Pressure 29.98 in
Visibility 6.2 miles
Clouds Few 3500 ft
Scattered Clouds 5800 ft
Windchill 50 °F
Dew Point 41 °F
Humidity 72%
Rainfall 0.09 in
Snow Depth Not available.
5:26 AM 8:43 PM
Waxing Gibbous, 73% visible
METAR YMHB 091100Z 29008KT 9999 FEW035 SCT058 11/02 Q1015 RF00.0/000.0
Pressure 29.98 in
Visibility 6.2 miles
Clouds Few 3500 ft
Scattered Clouds 5800 ft
Windchill 50 °F
Dew Point 41 °F
Humidity 72%
Rainfall 0.09 in
Snow Depth Not available.
5:26 AM 8:43 PM
Waxing Gibbous, 73% visible
METAR YMHB 091100Z 29008KT 9999 FEW035 SCT058 11/02 Q1015 RF00.0/000.0

10-Day Weather Forecast

×

Almanac

Astronomy

Dec. 09, 2016 Rise Set
Actual Time
Civil Twilight
Nautical Twilight
Astronomical Twilight
Moon
Length of Visible Light
Length of Day
Tomorrow will be .
, % of the Moon is Illuminated

Today's Extremes

Country Highs Country Lows

Community

WunderPhotos

Upload Photos

1,956,378 photos uploaded!

WunderBlog® & News

Nearby

Air Quality

  Air Quality AQ Index Pollutant
Not available.

Snow Depth

Station Depth Elevation

Earthquake Activity

City Distance Mag. Time & Date
Minimum magnitude displayed is 2.5.

Coastal Water Temperatures

Place Temperature

Stations

Nearby Weather Stations

Station Location Temp. Windchill Dew Point Humidity Wind Precip. Elev Updated Type